Time;durP1;ratioP1;P1;durP2;ratioP2;P2;SDS_P1;SDS_P2;PMS_P1;PMS_P2;Temp;Humidity;BMP_temperature;BMP_pressure;BME280_temperature;BME280_humidity;BME280_pressure;Samples;Min_cycle;Max_cycle;Signal;HPM_P1;HPM_P2
2023/11/28 00:02:08;;;;;;;;;;;0.80;82.40;;;;;;4998934;28;86974;-44
2023/11/28 00:04:34;;;;;;;;;;;0.80;82.40;;;;;;4996922;28;87881;-44
2023/11/28 00:06:59;;;;;;;;;;;0.80;82.30;;;;;;4996574;28;88424;-45
2023/11/28 00:09:25;;;;;;;;;;;0.80;82.30;;;;;;4998141;28;86889;-45
2023/11/28 00:11:52;;;;;;;;;;;0.80;82.20;;;;;;4995735;28;86977;-46
2023/11/28 00:14:17;;;;;;;;;;;0.80;82.20;;;;;;4995958;28;87400;-45
2023/11/28 00:16:43;;;;;;;;;;;0.80;82.30;;;;;;4997688;28;86207;-44
2023/11/28 00:19:08;;;;;;;;;;;0.80;82.20;;;;;;4995026;28;86981;-44
2023/11/28 00:21:34;;;;;;;;;;;0.80;82.30;;;;;;5000943;28;88409;-45
2023/11/28 00:24:02;;;;;;;;;;;0.80;82.30;;;;;;4994931;28;87795;-44
2023/11/28 00:26:27;;;;;;;;;;;0.80;82.40;;;;;;4997214;28;88659;-45
2023/11/28 00:28:53;;;;;;;;;;;0.80;82.30;;;;;;4996280;28;87051;-45
2023/11/28 00:31:20;;;;;;;;;;;0.80;82.30;;;;;;5000161;28;87080;-45
2023/11/28 00:33:46;;;;;;;;;;;0.80;82.20;;;;;;4995655;28;87382;-45
2023/11/28 00:36:14;;;;;;;;;;;0.80;82.40;;;;;;4998397;28;87122;-45
2023/11/28 00:38:40;;;;;;;;;;;0.70;82.30;;;;;;5001448;28;87005;-44
2023/11/28 00:41:06;;;;;;;;;;;0.80;82.40;;;;;;5000459;28;86930;-45
2023/11/28 00:43:31;;;;;;;;;;;0.80;82.30;;;;;;5002699;28;87036;-45
2023/11/28 00:45:57;;;;;;;;;;;0.70;82.20;;;;;;4999737;28;87364;-45
2023/11/28 00:48:22;;;;;;;;;;;0.80;82.30;;;;;;4995480;28;88665;-45
2023/11/28 00:50:48;;;;;;;;;;;0.80;82.40;;;;;;4997469;28;88727;-46
2023/11/28 00:53:14;;;;;;;;;;;0.80;82.20;;;;;;5002489;28;87772;-45
2023/11/28 00:55:39;;;;;;;;;;;0.80;82.40;;;;;;4998155;28;86909;-44
2023/11/28 00:58:05;;;;;;;;;;;0.80;82.30;;;;;;5002027;28;88048;-45
2023/11/28 01:00:31;;;;;;;;;;;0.80;82.20;;;;;;4997423;28;88566;-45
2023/11/28 01:02:59;;;;;;;;;;;0.80;82.20;;;;;;4997558;28;86938;-46
2023/11/28 01:05:25;;;;;;;;;;;0.80;82.20;;;;;;5000768;28;86739;-46
2023/11/28 01:07:50;;;;;;;;;;;0.80;82.20;;;;;;5000897;28;87079;-44
2023/11/28 01:10:16;;;;;;;;;;;0.80;82.20;;;;;;5002215;28;87904;-46
2023/11/28 01:12:42;;;;;;;;;;;0.80;82.30;;;;;;4996014;28;88351;-44
2023/11/28 01:15:08;;;;;;;;;;;0.80;82.30;;;;;;4998438;28;87010;-46
2023/11/28 01:17:33;;;;;;;;;;;0.80;82.30;;;;;;4999604;28;86892;-45
2023/11/28 01:19:59;;;;;;;;;;;0.80;82.20;;;;;;5000354;28;87495;-46
2023/11/28 01:22:24;;;;;;;;;;;0.80;82.30;;;;;;5001223;28;86931;-45
2023/11/28 01:24:50;;;;;;;;;;;0.80;82.20;;;;;;5002805;28;86801;-46
2023/11/28 01:27:16;;;;;;;;;;;0.80;82.30;;;;;;4997866;28;87011;-46
2023/11/28 01:29:41;;;;;;;;;;;0.80;82.30;;;;;;4999799;28;86722;-45
2023/11/28 01:32:07;;;;;;;;;;;0.80;82.30;;;;;;5000554;28;88683;-46
2023/11/28 01:34:32;;;;;;;;;;;0.80;82.20;;;;;;4997221;28;86967;-46
2023/11/28 01:36:58;;;;;;;;;;;0.80;82.30;;;;;;4999638;28;87968;-45
2023/11/28 01:39:23;;;;;;;;;;;0.80;82.30;;;;;;5000639;28;87530;-45
2023/11/28 01:41:49;;;;;;;;;;;0.80;82.10;;;;;;4999874;28;86983;-45
2023/11/28 01:44:15;;;;;;;;;;;0.80;82.30;;;;;;4999347;28;87054;-46
2023/11/28 01:46:41;;;;;;;;;;;0.80;82.20;;;;;;5000443;28;88467;-45
2023/11/28 01:49:07;;;;;;;;;;;0.80;82.10;;;;;;4997262;28;86875;-45
2023/11/28 01:51:33;;;;;;;;;;;0.80;82.20;;;;;;5000584;28;86916;-45
2023/11/28 01:54:00;;;;;;;;;;;0.80;82.20;;;;;;4999730;28;86280;-46
2023/11/28 01:56:26;;;;;;;;;;;0.80;82.00;;;;;;5003457;28;87378;-45
2023/11/28 01:58:53;;;;;;;;;;;0.80;82.20;;;;;;4998744;28;86849;-45
2023/11/28 02:01:20;;;;;;;;;;;0.80;82.20;;;;;;5003094;28;87925;-45
2023/11/28 02:03:46;;;;;;;;;;;0.80;82.10;;;;;;4999758;28;87527;-45
2023/11/28 02:06:11;;;;;;;;;;;0.80;82.20;;;;;;5000549;28;88744;-45
2023/11/28 02:08:38;;;;;;;;;;;0.80;82.30;;;;;;5006501;28;86997;-45
2023/11/28 02:11:03;;;;;;;;;;;0.80;82.30;;;;;;4996551;28;87155;-45
2023/11/28 02:13:32;;;;;;;;;;;0.80;82.30;;;;;;5001250;28;87028;-45
2023/11/28 02:15:58;;;;;;;;;;;0.80;82.40;;;;;;4999309;28;88192;-45
2023/11/28 02:18:24;;;;;;;;;;;0.80;82.30;;;;;;4996351;28;87692;-45
2023/11/28 02:20:49;;;;;;;;;;;0.80;82.40;;;;;;4999231;28;87068;-45
2023/11/28 02:23:15;;;;;;;;;;;0.80;82.30;;;;;;4996778;28;86958;-45
2023/11/28 02:25:45;;;;;;;;;;;0.80;82.40;;;;;;4998187;28;88398;-45
2023/11/28 02:28:21;;;;;;;;;;;0.80;82.10;;;;;;4999842;28;87059;-45
2023/11/28 02:30:56;;;;;;;;;;;0.90;82.20;;;;;;4997826;28;86754;-45
2023/11/28 02:33:21;;;;;;;;;;;0.80;82.20;;;;;;4996298;28;87472;-45
2023/11/28 02:35:47;;;;;;;;;;;0.80;82.40;;;;;;4996961;28;88335;-46
2023/11/28 02:38:13;;;;;;;;;;;0.90;82.10;;;;;;4999561;28;87471;-45
2023/11/28 02:40:38;;;;;;;;;;;0.90;81.90;;;;;;4996375;28;87028;-44
2023/11/28 02:43:04;;;;;;;;;;;0.90;81.90;;;;;;5000581;28;86541;-45
2023/11/28 02:45:30;;;;;;;;;;;0.90;82.20;;;;;;4999477;28;86792;-45
2023/11/28 02:47:55;;;;;;;;;;;0.80;82.20;;;;;;5001317;28;87081;-45
2023/11/28 02:50:21;;;;;;;;;;;0.80;82.30;;;;;;4996019;28;87877;-44
2023/11/28 02:52:46;;;;;;;;;;;0.90;82.20;;;;;;5001658;28;87585;-45
2023/11/28 02:55:12;;;;;;;;;;;0.90;81.90;;;;;;4997513;28;86981;-45
2023/11/28 02:57:37;;;;;;;;;;;0.90;81.80;;;;;;4995169;28;87570;-45
2023/11/28 03:00:05;;;;;;;;;;;0.90;82.10;;;;;;4998256;28;87678;-46
2023/11/28 03:02:30;;;;;;;;;;;0.80;82.20;;;;;;4997258;28;87020;-45
2023/11/28 03:04:56;;;;;;;;;;;0.80;82.20;;;;;;4997846;28;88377;-44
2023/11/28 03:07:21;;;;;;;;;;;0.80;82.30;;;;;;5000279;28;86763;-45
2023/11/28 03:09:47;;;;;;;;;;;0.80;82.20;;;;;;4998978;28;87034;-46
2023/11/28 03:12:13;;;;;;;;;;;0.90;82.20;;;;;;4995877;28;87339;-46
2023/11/28 03:14:38;;;;;;;;;;;0.90;81.80;;;;;;5001173;28;87975;-45
2023/11/28 03:17:04;;;;;;;;;;;0.90;81.80;;;;;;4998549;28;87507;-45
2023/11/28 03:19:30;;;;;;;;;;;0.90;82.30;;;;;;4995923;28;87088;-45
2023/11/28 03:21:56;;;;;;;;;;;0.80;82.30;;;;;;4997321;28;88072;-44
2023/11/28 03:24:21;;;;;;;;;;;0.80;82.30;;;;;;4994177;28;87420;-45
2023/11/28 03:26:47;;;;;;;;;;;0.90;81.70;;;;;;4996762;28;87016;-45
2023/11/28 03:29:13;;;;;;;;;;;0.90;81.90;;;;;;4998080;28;86787;-46
2023/11/28 03:31:38;;;;;;;;;;;0.90;82.20;;;;;;5002809;28;86663;-44
2023/11/28 03:34:04;;;;;;;;;;;0.80;82.20;;;;;;5001433;28;86872;-44
2023/11/28 03:36:30;;;;;;;;;;;0.90;82.00;;;;;;5002177;28;87483;-46
2023/11/28 03:38:56;;;;;;;;;;;0.90;82.10;;;;;;4996529;28;88728;-45
2023/11/28 03:41:22;;;;;;;;;;;0.90;82.30;;;;;;4999683;28;87697;-45
2023/11/28 03:43:47;;;;;;;;;;;0.90;82.00;;;;;;4999391;28;87510;-45
2023/11/28 03:46:13;;;;;;;;;;;0.90;81.80;;;;;;4996087;28;87028;-45
2023/11/28 03:48:38;;;;;;;;;;;0.90;82.00;;;;;;4998641;28;87120;-46
2023/11/28 03:51:04;;;;;;;;;;;0.90;82.10;;;;;;5000528;28;88489;-44
2023/11/28 03:53:30;;;;;;;;;;;0.90;82.10;;;;;;5001502;28;86923;-46
2023/11/28 03:55:55;;;;;;;;;;;0.90;81.90;;;;;;5005470;28;87825;-47
2023/11/28 03:58:23;;;;;;;;;;;0.90;82.00;;;;;;4997981;28;87071;-44
2023/11/28 04:00:50;;;;;;;;;;;0.90;81.90;;;;;;4998135;28;87565;-45
2023/11/28 04:03:15;;;;;;;;;;;0.90;81.90;;;;;;4997051;28;89479;-45
2023/11/28 04:05:44;;;;;;;;;;;0.90;82.30;;;;;;4998873;28;86969;-45
2023/11/28 04:08:09;;;;;;;;;;;0.90;82.30;;;;;;4998711;28;87238;-47
2023/11/28 04:10:35;;;;;;;;;;;0.90;82.20;;;;;;4995847;28;87444;-45
2023/11/28 04:13:00;;;;;;;;;;;1.00;82.10;;;;;;4996777;28;87124;-46
2023/11/28 04:15:27;;;;;;;;;;;0.90;81.80;;;;;;4999104;28;86784;-45
2023/11/28 04:17:52;;;;;;;;;;;0.90;81.90;;;;;;4996373;28;88593;-44
2023/11/28 04:20:18;;;;;;;;;;;0.90;82.20;;;;;;5001469;28;86852;-45
2023/11/28 04:22:43;;;;;;;;;;;0.90;82.40;;;;;;4994346;28;87831;-46
2023/11/28 04:25:09;;;;;;;;;;;0.90;81.80;;;;;;4990857;28;86945;-44
2023/11/28 04:27:34;;;;;;;;;;;0.90;82.00;;;;;;4998433;28;88120;-47
2023/11/28 04:30:00;;;;;;;;;;;0.90;82.00;;;;;;4996482;28;87429;-45
2023/11/28 04:32:25;;;;;;;;;;;0.90;81.90;;;;;;4996378;28;87129;-45
2023/11/28 04:34:51;;;;;;;;;;;0.90;82.10;;;;;;4997922;28;86873;-45
2023/11/28 04:37:17;;;;;;;;;;;0.90;82.20;;;;;;4999093;28;87520;-45
2023/11/28 04:39:44;;;;;;;;;;;0.90;82.10;;;;;;5001263;28;87074;-45
2023/11/28 04:42:10;;;;;;;;;;;0.90;82.00;;;;;;5000170;28;88394;-45
2023/11/28 04:44:35;;;;;;;;;;;0.90;81.90;;;;;;4998866;28;86251;-44
2023/11/28 04:47:01;;;;;;;;;;;0.90;81.60;;;;;;4996195;28;87009;-45
2023/11/28 04:49:26;;;;;;;;;;;0.90;81.80;;;;;;5003038;28;90243;-46
2023/11/28 04:51:52;;;;;;;;;;;0.90;82.10;;;;;;5002549;28;88304;-45
2023/11/28 04:54:17;;;;;;;;;;;0.90;82.20;;;;;;4997118;28;87447;-45
2023/11/28 04:56:43;;;;;;;;;;;0.90;82.20;;;;;;4997432;28;87543;-45
2023/11/28 04:59:09;;;;;;;;;;;0.90;82.00;;;;;;4994398;28;87239;-46
2023/11/28 05:01:41;;;;;;;;;;;0.90;81.90;;;;;;4999590;28;87038;-45
2023/11/28 05:04:07;;;;;;;;;;;0.90;81.90;;;;;;4994914;28;86925;-45
2023/11/28 05:06:32;;;;;;;;;;;0.90;81.70;;;;;;4994208;28;87773;-44
2023/11/28 05:08:58;;;;;;;;;;;0.90;81.90;;;;;;4994019;28;87627;-45
2023/11/28 05:11:23;;;;;;;;;;;0.90;81.80;;;;;;4994272;28;87028;-45
2023/11/28 05:13:49;;;;;;;;;;;0.90;81.80;;;;;;4997550;28;88152;-45
2023/11/28 05:16:14;;;;;;;;;;;0.90;81.90;;;;;;4993861;28;88478;-45
2023/11/28 05:18:40;;;;;;;;;;;0.90;81.90;;;;;;4993324;28;86972;-45
2023/11/28 05:21:05;;;;;;;;;;;0.90;81.80;;;;;;4998290;28;87019;-45
2023/11/28 05:23:31;;;;;;;;;;;0.90;81.80;;;;;;5007624;28;87516;-44
2023/11/28 05:25:57;;;;;;;;;;;0.90;81.70;;;;;;5003659;28;87007;-44
2023/11/28 05:28:22;;;;;;;;;;;0.90;81.70;;;;;;4996633;28;88554;-45
2023/11/28 05:30:48;;;;;;;;;;;0.90;82.10;;;;;;4996823;28;86997;-46
2023/11/28 05:33:13;;;;;;;;;;;0.90;81.80;;;;;;4996740;28;87793;-45
2023/11/28 05:35:39;;;;;;;;;;;0.90;81.80;;;;;;5000704;28;87395;-44
2023/11/28 05:38:04;;;;;;;;;;;1.00;81.80;;;;;;5000799;28;86867;-44
2023/11/28 05:40:30;;;;;;;;;;;1.00;81.90;;;;;;4999938;28;87786;-45
2023/11/28 05:42:55;;;;;;;;;;;1.00;81.50;;;;;;5003422;28;88250;-45
2023/11/28 05:45:21;;;;;;;;;;;1.10;81.80;;;;;;4995646;28;88011;-45
2023/11/28 05:47:47;;;;;;;;;;;1.10;81.50;;;;;;4999887;28;88546;-45
2023/11/28 05:50:12;;;;;;;;;;;1.10;81.90;;;;;;4993926;28;87021;-45
2023/11/28 05:52:38;;;;;;;;;;;1.10;81.50;;;;;;4998364;28;87892;-45
2023/11/28 05:55:04;;;;;;;;;;;1.20;81.60;;;;;;5004519;28;88444;-44
2023/11/28 05:57:30;;;;;;;;;;;1.20;81.50;;;;;;4999397;28;86322;-45
2023/11/28 05:59:56;;;;;;;;;;;1.20;81.10;;;;;;4994816;28;87028;-45
2023/11/28 06:02:22;;;;;;;;;;;1.20;81.60;;;;;;5000216;28;88487;-44
2023/11/28 06:04:48;;;;;;;;;;;1.20;81.40;;;;;;5001884;28;88366;-46
2023/11/28 06:07:14;;;;;;;;;;;1.10;81.10;;;;;;4999540;28;88718;-45
2023/11/28 06:09:39;;;;;;;;;;;1.10;81.30;;;;;;5002338;28;87752;-45
2023/11/28 06:12:05;;;;;;;;;;;1.20;81.50;;;;;;4999555;28;86982;-45
2023/11/28 06:14:31;;;;;;;;;;;1.20;81.10;;;;;;4996558;28;88225;-45
2023/11/28 06:16:56;;;;;;;;;;;1.20;80.80;;;;;;5001004;28;87620;-45
2023/11/28 06:19:22;;;;;;;;;;;1.20;81.30;;;;;;5000418;28;88506;-45
2023/11/28 06:21:47;;;;;;;;;;;1.20;81.20;;;;;;4999864;28;87778;-45
2023/11/28 06:24:14;;;;;;;;;;;1.20;81.10;;;;;;5000120;28;87223;-45
2023/11/28 06:26:40;;;;;;;;;;;1.20;81.20;;;;;;4998066;28;87889;-45
2023/11/28 06:29:05;;;;;;;;;;;1.20;81.20;;;;;;4996065;28;89144;-45
2023/11/28 06:31:31;;;;;;;;;;;1.20;81.20;;;;;;5003188;28;87795;-44
2023/11/28 06:33:56;;;;;;;;;;;1.20;81.10;;;;;;4995718;28;88018;-45
2023/11/28 06:36:22;;;;;;;;;;;1.20;81.40;;;;;;5001411;28;87009;-44
2023/11/28 06:38:48;;;;;;;;;;;1.20;80.90;;;;;;4996421;28;86866;-44
2023/11/28 06:41:14;;;;;;;;;;;1.20;81.10;;;;;;4999439;28;87444;-44
2023/11/28 06:43:39;;;;;;;;;;;1.20;81.20;;;;;;4994315;28;87022;-44
2023/11/28 06:46:05;;;;;;;;;;;1.20;81.50;;;;;;4994848;28;87194;-45
2023/11/28 06:48:31;;;;;;;;;;;1.20;81.40;;;;;;5001736;28;88524;-44
2023/11/28 06:50:57;;;;;;;;;;;1.20;81.00;;;;;;4998428;28;87891;-44
2023/11/28 06:53:22;;;;;;;;;;;1.30;81.40;;;;;;4998630;28;88348;-44
2023/11/28 06:55:48;;;;;;;;;;;1.20;81.20;;;;;;4999533;28;87010;-44
2023/11/28 06:58:14;;;;;;;;;;;1.30;81.20;;;;;;4998479;28;87044;-45
2023/11/28 07:00:39;;;;;;;;;;;1.30;81.00;;;;;;4992481;28;87436;-45
2023/11/28 07:03:06;;;;;;;;;;;1.30;81.30;;;;;;4995811;28;88463;-43
2023/11/28 07:05:31;;;;;;;;;;;1.30;81.20;;;;;;4995363;28;87957;-45
2023/11/28 07:07:57;;;;;;;;;;;1.20;80.50;;;;;;4988656;28;90439;-45
2023/11/28 07:10:22;;;;;;;;;;;1.20;80.90;;;;;;5001023;28;86356;-44
2023/11/28 07:12:48;;;;;;;;;;;1.30;81.00;;;;;;5002615;28;87400;-44
2023/11/28 07:15:14;;;;;;;;;;;1.20;81.10;;;;;;4998084;28;87023;-44
2023/11/28 07:17:40;;;;;;;;;;;1.30;81.20;;;;;;5004780;28;88574;-44
2023/11/28 07:20:06;;;;;;;;;;;1.20;80.90;;;;;;4997479;28;88684;-44
2023/11/28 07:22:32;;;;;;;;;;;1.20;81.10;;;;;;4997278;28;86990;-45
2023/11/28 07:24:58;;;;;;;;;;;1.30;80.70;;;;;;4998096;28;86938;-44
2023/11/28 07:27:23;;;;;;;;;;;1.20;80.90;;;;;;5001743;28;87458;-44
2023/11/28 07:29:49;;;;;;;;;;;1.20;81.00;;;;;;4998094;28;87204;-45
2023/11/28 07:32:14;;;;;;;;;;;1.20;81.10;;;;;;4994123;28;86998;-44
2023/11/28 07:34:40;;;;;;;;;;;1.20;81.20;;;;;;4995305;28;86323;-44
2023/11/28 07:37:06;;;;;;;;;;;1.30;80.90;;;;;;4994238;28;87281;-45
2023/11/28 07:39:32;;;;;;;;;;;1.30;81.10;;;;;;4995275;28;89218;-44
2023/11/28 07:41:58;;;;;;;;;;;1.20;81.10;;;;;;4999499;28;88126;-44
2023/11/28 07:44:24;;;;;;;;;;;1.30;81.20;;;;;;4993807;28;88491;-45
2023/11/28 07:46:49;;;;;;;;;;;1.30;81.30;;;;;;4996605;28;88375;-45
2023/11/28 07:49:15;;;;;;;;;;;1.20;80.80;;;;;;4997417;28;87004;-44
2023/11/28 07:51:40;;;;;;;;;;;1.20;81.20;;;;;;5001461;28;87053;-44
2023/11/28 07:54:06;;;;;;;;;;;1.20;80.90;;;;;;5002417;28;87673;-43
2023/11/28 07:56:32;;;;;;;;;;;1.20;81.10;;;;;;4996484;28;88028;-45
2023/11/28 07:58:58;;;;;;;;;;;1.30;81.30;;;;;;4999745;28;86380;-43
2023/11/28 08:01:23;;;;;;;;;;;1.20;81.10;;;;;;4992992;28;87658;-45
2023/11/28 08:03:49;;;;;;;;;;;1.30;81.30;;;;;;4999075;28;86954;-44
2023/11/28 08:06:17;;;;;;;;;;;1.30;80.70;;;;;;4999634;28;89456;-44
2023/11/28 08:08:42;;;;;;;;;;;1.30;81.00;;;;;;4994690;28;87399;-43
2023/11/28 08:11:12;;;;;;;;;;;1.30;81.30;;;;;;5002536;28;87042;-44
2023/11/28 08:13:37;;;;;;;;;;;1.30;81.10;;;;;;5001109;28;88681;-43
2023/11/28 08:16:03;;;;;;;;;;;1.30;81.20;;;;;;4997246;28;87452;-43
2023/11/28 08:18:29;;;;;;;;;;;1.30;81.10;;;;;;4998737;28;87522;-43
2023/11/28 08:20:54;;;;;;;;;;;1.30;81.20;;;;;;4990850;28;87066;-43
2023/11/28 08:23:20;;;;;;;;;;;1.30;81.10;;;;;;4998896;28;87844;-43
2023/11/28 08:25:46;;;;;;;;;;;1.30;81.10;;;;;;4996200;28;88590;-43
2023/11/28 08:28:12;;;;;;;;;;;1.30;80.90;;;;;;4996243;28;87097;-43
2023/11/28 08:30:37;;;;;;;;;;;1.40;81.10;;;;;;4996214;28;88024;-43
2023/11/28 08:33:03;;;;;;;;;;;1.40;81.00;;;;;;4995610;28;88608;-44
2023/11/28 08:35:28;;;;;;;;;;;1.30;80.90;;;;;;5000511;28;87099;-44
2023/11/28 08:37:54;;;;;;;;;;;1.30;81.20;;;;;;4999147;28;87140;-43
2023/11/28 08:40:19;;;;;;;;;;;1.30;81.10;;;;;;4998199;28;87866;-43
2023/11/28 08:42:45;;;;;;;;;;;1.40;81.00;;;;;;4997502;28;87716;-43
2023/11/28 08:45:11;;;;;;;;;;;1.40;80.90;;;;;;4995491;28;87745;-43
2023/11/28 08:47:37;;;;;;;;;;;1.30;81.20;;;;;;4996417;28;86341;-44
2023/11/28 08:50:03;;;;;;;;;;;1.40;81.00;;;;;;4995624;28;87075;-43
2023/11/28 08:52:29;;;;;;;;;;;1.40;81.20;;;;;;4998884;28;88498;-43
2023/11/28 08:54:55;;;;;;;;;;;1.40;81.00;;;;;;4994649;28;89623;-43
2023/11/28 08:57:21;;;;;;;;;;;1.40;81.00;;;;;;4995731;28;88871;-44
2023/11/28 08:59:46;;;;;;;;;;;1.40;80.80;;;;;;5000093;28;86985;-43
2023/11/28 09:02:12;;;;;;;;;;;1.40;81.00;;;;;;5001981;28;87690;-42
2023/11/28 09:04:37;;;;;;;;;;;1.50;80.80;;;;;;4998176;28;88455;-43
2023/11/28 09:07:03;;;;;;;;;;;1.50;81.00;;;;;;4997829;28;87033;-43
2023/11/28 09:09:28;;;;;;;;;;;1.50;80.80;;;;;;5001544;28;86864;-42
2023/11/28 09:11:54;;;;;;;;;;;1.50;80.60;;;;;;5000025;28;87681;-42
2023/11/28 09:14:19;;;;;;;;;;;1.50;80.80;;;;;;4998501;28;87174;-43
2023/11/28 09:16:45;;;;;;;;;;;1.60;81.50;;;;;;4999433;28;88068;-43
2023/11/28 09:19:11;;;;;;;;;;;1.50;80.80;;;;;;5002866;28;89421;-43
2023/11/28 09:21:36;;;;;;;;;;;1.50;80.70;;;;;;4996337;28;87812;-44
2023/11/28 09:24:02;;;;;;;;;;;1.60;81.00;;;;;;5000258;28;87397;-42
2023/11/28 09:26:28;;;;;;;;;;;1.50;80.90;;;;;;5003009;28;87045;-42
2023/11/28 09:28:54;;;;;;;;;;;1.60;81.00;;;;;;4995835;28;86830;-44
2023/11/28 09:31:25;;;;;;;;;;;1.60;81.50;;;;;;5002864;28;87427;-43
2023/11/28 09:33:55;;;;;;;;;;;1.60;80.90;;;;;;4996990;28;87032;-43
2023/11/28 09:36:21;;;;;;;;;;;1.60;80.70;;;;;;4999454;28;86856;-44
2023/11/28 09:38:46;;;;;;;;;;;1.60;80.70;;;;;;5008621;28;87970;-43
2023/11/28 09:41:19;;;;;;;;;;;1.60;81.00;;;;;;5001513;28;87035;-43
2023/11/28 09:43:45;;;;;;;;;;;1.60;80.90;;;;;;4999543;28;88202;-43
2023/11/28 09:46:12;;;;;;;;;;;1.60;80.80;;;;;;5004062;28;86978;-44
2023/11/28 09:48:40;;;;;;;;;;;1.60;80.90;;;;;;5003199;28;86988;-44
2023/11/28 09:51:06;;;;;;;;;;;1.60;80.80;;;;;;4999691;28;87576;-44
2023/11/28 09:53:33;;;;;;;;;;;1.70;81.30;;;;;;5003296;28;87092;-44
2023/11/28 09:55:59;;;;;;;;;;;1.60;80.40;;;;;;5002948;28;87989;-44
2023/11/28 09:58:26;;;;;;;;;;;1.60;80.80;;;;;;5001328;28;88571;-43
2023/11/28 10:00:53;;;;;;;;;;;1.60;80.70;;;;;;5003558;28;86395;-44
2023/11/28 10:03:18;;;;;;;;;;;1.60;80.90;;;;;;4994889;28;87578;-44
2023/11/28 10:05:44;;;;;;;;;;;1.60;81.00;;;;;;4998804;28;87009;-43
2023/11/28 10:08:10;;;;;;;;;;;1.60;81.10;;;;;;4999285;28;87956;-43
2023/11/28 10:10:39;;;;;;;;;;;1.60;81.10;;;;;;5000841;28;88418;-44
2023/11/28 10:13:04;;;;;;;;;;;1.60;81.20;;;;;;5000321;28;86994;-44
2023/11/28 10:15:30;;;;;;;;;;;1.70;81.00;;;;;;4994741;28;88373;-44
2023/11/28 10:17:57;;;;;;;;;;;1.60;81.00;;;;;;4999667;28;88779;-43
2023/11/28 10:20:27;;;;;;;;;;;1.70;80.90;;;;;;4999753;28;87729;-43
2023/11/28 10:22:53;;;;;;;;;;;1.70;80.70;;;;;;4995216;28;87000;-43
2023/11/28 10:25:20;;;;;;;;;;;1.70;81.20;;;;;;5003591;28;86872;-44
2023/11/28 10:27:46;;;;;;;;;;;1.70;81.10;;;;;;4997672;28;87795;-43
2023/11/28 10:30:12;;;;;;;;;;;1.70;80.90;;;;;;4998266;28;87535;-44
2023/11/28 10:32:38;;;;;;;;;;;1.70;81.00;;;;;;4999414;28;88761;-44
2023/11/28 10:35:06;;;;;;;;;;;1.70;80.80;;;;;;4997510;28;87565;-43
2023/11/28 10:37:35;;;;;;;;;;;1.70;80.80;;;;;;4999693;28;87765;-44
2023/11/28 10:40:19;;;;;;;;;;;1.70;81.00;;;;;;4996026;28;87153;-42
2023/11/28 10:42:45;;;;;;;;;;;1.70;81.00;;;;;;4997423;28;87845;-43
2023/11/28 10:45:12;;;;;;;;;;;1.70;80.80;;;;;;5000164;28;87985;-44
2023/11/28 10:47:41;;;;;;;;;;;1.70;81.10;;;;;;5000334;28;87921;-43
2023/11/28 10:50:08;;;;;;;;;;;1.70;80.90;;;;;;4999523;28;87738;-43
2023/11/28 10:52:36;;;;;;;;;;;1.70;81.30;;;;;;5003481;28;87186;-42
2023/11/28 10:55:05;;;;;;;;;;;1.70;81.20;;;;;;5001624;28;87756;-43
2023/11/28 10:57:31;;;;;;;;;;;1.70;81.00;;;;;;4996661;28;88273;-43
2023/11/28 11:00:00;;;;;;;;;;;1.70;81.10;;;;;;4999464;28;86978;-43
2023/11/28 11:02:26;;;;;;;;;;;1.80;81.00;;;;;;4999830;28;87599;-42
2023/11/28 11:04:51;;;;;;;;;;;1.70;81.10;;;;;;4995214;28;87722;-42
2023/11/28 11:07:17;;;;;;;;;;;1.80;81.20;;;;;;5004850;28;86953;-42
2023/11/28 11:09:44;;;;;;;;;;;1.80;80.90;;;;;;5000749;28;86887;-43
2023/11/28 11:12:10;;;;;;;;;;;1.80;81.10;;;;;;4998231;28;88591;-43
2023/11/28 11:14:50;;;;;;;;;;;1.80;80.80;;;;;;4997289;28;86965;-43
2023/11/28 11:17:19;;;;;;;;;;;1.70;80.90;;;;;;5001377;28;88477;-44
2023/11/28 11:19:46;;;;;;;;;;;1.80;80.90;;;;;;4999662;28;87074;-43
2023/11/28 11:22:13;;;;;;;;;;;1.80;81.20;;;;;;4996490;28;88076;-43
2023/11/28 11:24:38;;;;;;;;;;;1.80;81.40;;;;;;4995401;28;88618;-42
2023/11/28 11:27:04;;;;;;;;;;;1.80;81.30;;;;;;4998681;28;87014;-43
2023/11/28 11:29:30;;;;;;;;;;;1.90;81.10;;;;;;5007655;28;88439;-43
2023/11/28 11:31:56;;;;;;;;;;;1.90;81.10;;;;;;4998638;28;87250;-43
2023/11/28 11:34:34;;;;;;;;;;;1.90;81.30;;;;;;4997491;28;86778;-42
2023/11/28 11:37:06;;;;;;;;;;;1.90;81.30;;;;;;4994538;28;88467;-43
2023/11/28 11:39:31;;;;;;;;;;;1.90;81.30;;;;;;4998923;28;86349;-43
2023/11/28 11:41:57;;;;;;;;;;;1.90;81.40;;;;;;4994328;28;87104;-42
2023/11/28 11:44:22;;;;;;;;;;;1.90;81.20;;;;;;4992053;28;88631;-42
2023/11/28 11:46:48;;;;;;;;;;;1.90;81.40;;;;;;5001679;28;88696;-42
2023/11/28 11:49:15;;;;;;;;;;;2.00;81.30;;;;;;5003017;28;87838;-42
2023/11/28 11:51:40;;;;;;;;;;;1.90;81.50;;;;;;4996172;28;88118;-43
2023/11/28 11:54:06;;;;;;;;;;;1.90;81.30;;;;;;4995223;28;87839;-42
2023/11/28 11:56:31;;;;;;;;;;;1.90;81.30;;;;;;4994963;28;87333;-42
2023/11/28 11:59:01;;;;;;;;;;;1.90;81.40;;;;;;5000295;28;87190;-41
2023/11/28 12:01:29;;;;;;;;;;;1.90;81.60;;;;;;4995039;28;87059;-42
2023/11/28 12:03:58;;;;;;;;;;;1.90;81.60;;;;;;5003980;28;87082;-42
2023/11/28 12:06:24;;;;;;;;;;;1.90;81.60;;;;;;4998275;28;87084;-43
2023/11/28 12:08:49;;;;;;;;;;;1.90;81.80;;;;;;4996544;28;87220;-43
2023/11/28 12:11:15;;;;;;;;;;;1.90;81.50;;;;;;4992570;28;89725;-43
2023/11/28 12:13:41;;;;;;;;;;;1.90;81.50;;;;;;4999556;28;88859;-43
2023/11/28 12:16:07;;;;;;;;;;;1.90;81.50;;;;;;4998329;28;88442;-42
2023/11/28 12:18:34;;;;;;;;;;;1.90;81.70;;;;;;4996531;28;87065;-43
2023/11/28 12:21:00;;;;;;;;;;;1.90;81.80;;;;;;4997172;28;87171;-42
2023/11/28 12:23:26;;;;;;;;;;;1.90;81.60;;;;;;4995840;28;87452;-42
2023/11/28 12:25:52;;;;;;;;;;;1.90;81.70;;;;;;4997039;28;87062;-43
2023/11/28 12:28:18;;;;;;;;;;;1.90;81.40;;;;;;4994310;28;86641;-42
2023/11/28 12:30:44;;;;;;;;;;;1.90;81.50;;;;;;4997869;28;87610;-42
2023/11/28 12:33:11;;;;;;;;;;;1.90;81.80;;;;;;4998213;28;87053;-43
2023/11/28 12:35:37;;;;;;;;;;;1.90;81.60;;;;;;4998018;28;89450;-43
2023/11/28 12:38:02;;;;;;;;;;;1.90;81.90;;;;;;4991752;28;87680;-43
2023/11/28 12:40:28;;;;;;;;;;;1.90;81.90;;;;;;5001100;28;87040;-43
2023/11/28 12:42:54;;;;;;;;;;;1.90;81.60;;;;;;4994168;28;88589;-43
2023/11/28 12:45:23;;;;;;;;;;;2.00;82.20;;;;;;4999234;28;87156;-43
2023/11/28 12:47:49;;;;;;;;;;;1.90;81.60;;;;;;4997373;28;87805;-43
2023/11/28 12:50:15;;;;;;;;;;;2.00;82.00;;;;;;4989552;28;88634;-44
2023/11/28 12:52:42;;;;;;;;;;;1.90;82.10;;;;;;4997789;28;86507;-43
2023/11/28 12:55:08;;;;;;;;;;;1.90;82.20;;;;;;4998623;28;87026;-43
2023/11/28 12:57:34;;;;;;;;;;;1.90;82.00;;;;;;4992015;28;87714;-43
2023/11/28 13:00:00;;;;;;;;;;;1.90;82.00;;;;;;4999661;28;87730;-43
2023/11/28 13:02:26;;;;;;;;;;;1.90;82.10;;;;;;4994387;28;87411;-43
2023/11/28 13:04:53;;;;;;;;;;;1.90;82.10;;;;;;4996125;28;87304;-44
2023/11/28 13:07:19;;;;;;;;;;;1.90;82.10;;;;;;4994509;28;87897;-43
2023/11/28 13:09:44;;;;;;;;;;;1.90;82.30;;;;;;4997436;28;88484;-44
2023/11/28 13:12:10;;;;;;;;;;;2.00;82.40;;;;;;5002125;28;88608;-44
2023/11/28 13:14:36;;;;;;;;;;;2.00;82.40;;;;;;4991996;28;87944;-44
2023/11/28 13:17:02;;;;;;;;;;;2.00;82.40;;;;;;4998406;28;86481;-44
2023/11/28 13:19:28;;;;;;;;;;;2.10;82.60;;;;;;4997445;28;88450;-42
2023/11/28 13:21:54;;;;;;;;;;;2.00;82.20;;;;;;4995926;28;88474;-44
2023/11/28 13:24:20;;;;;;;;;;;2.10;82.20;;;;;;4998484;28;88054;-43
2023/11/28 13:26:45;;;;;;;;;;;2.00;82.00;;;;;;4995541;28;88554;-43
2023/11/28 13:29:11;;;;;;;;;;;2.10;82.20;;;;;;4993179;28;87513;-44
2023/11/28 13:31:38;;;;;;;;;;;2.00;82.20;;;;;;5000296;28;87318;-43
2023/11/28 13:34:04;;;;;;;;;;;2.00;82.50;;;;;;4995167;28;87818;-44
2023/11/28 13:36:30;;;;;;;;;;;2.10;82.30;;;;;;4993305;28;88363;-43
2023/11/28 13:38:55;;;;;;;;;;;2.10;82.50;;;;;;5000135;28;87218;-43
2023/11/28 13:41:21;;;;;;;;;;;2.10;82.40;;;;;;4997223;28;86372;-45
2023/11/28 13:43:48;;;;;;;;;;;2.00;82.40;;;;;;4996334;28;87632;-44
2023/11/28 13:46:13;;;;;;;;;;;2.10;82.40;;;;;;5000311;28;87641;-43
2023/11/28 13:48:39;;;;;;;;;;;2.10;82.60;;;;;;5003024;28;88413;-44
2023/11/28 13:51:07;;;;;;;;;;;2.10;82.60;;;;;;5000734;28;87049;-44
2023/11/28 13:53:33;;;;;;;;;;;2.10;82.70;;;;;;4998732;28;88072;-43
2023/11/28 13:55:59;;;;;;;;;;;2.10;83.00;;;;;;4998102;28;88543;-43
2023/11/28 13:58:24;;;;;;;;;;;2.00;82.60;;;;;;5007487;28;87795;-43
2023/11/28 14:00:51;;;;;;;;;;;2.00;82.80;;;;;;4997746;28;87865;-43
2023/11/28 14:03:17;;;;;;;;;;;2.00;82.80;;;;;;4995580;28;87072;-43
2023/11/28 14:05:43;;;;;;;;;;;2.00;82.80;;;;;;4998036;28;86795;-44
2023/11/28 14:08:09;;;;;;;;;;;2.00;82.80;;;;;;4998951;28;88360;-43
2023/11/28 14:10:34;;;;;;;;;;;2.10;83.10;;;;;;4998604;28;87116;-44
2023/11/28 14:13:00;;;;;;;;;;;2.10;83.20;;;;;;4998385;28;87956;-44
2023/11/28 14:15:27;;;;;;;;;;;2.10;82.90;;;;;;4999425;28;87605;-44
2023/11/28 14:17:52;;;;;;;;;;;2.10;82.90;;;;;;4997775;28;87442;-43
2023/11/28 14:20:18;;;;;;;;;;;2.10;83.40;;;;;;4999468;28;87179;-43
2023/11/28 14:22:43;;;;;;;;;;;2.10;83.10;;;;;;4996715;28;87169;-44
2023/11/28 14:25:10;;;;;;;;;;;2.10;83.00;;;;;;5000027;28;87714;-43